createdAt,value
2024-02-02T00:03:46.432Z,19.53
2024-02-02T00:08:47.897Z,19.41
2024-02-02T00:13:49.414Z,19.44
2024-02-02T00:18:51.094Z,19.30
2024-02-02T00:23:52.700Z,19.27
2024-02-02T00:28:54.127Z,19.17
2024-02-02T00:33:55.783Z,19.18
2024-02-02T00:38:57.350Z,19.20
2024-02-02T00:43:58.855Z,19.16
2024-02-02T00:49:00.358Z,19.17
2024-02-02T00:54:01.914Z,19.18
2024-02-02T00:59:03.388Z,19.17
2024-02-02T01:04:04.905Z,19.17
2024-02-02T01:09:06.528Z,19.18
2024-02-02T01:14:08.016Z,19.20
2024-02-02T01:19:09.500Z,19.13
2024-02-02T01:24:11.117Z,19.10
2024-02-02T01:29:12.574Z,19.14
2024-02-02T01:34:14.066Z,19.17
2024-02-02T01:39:15.635Z,19.10
2024-02-02T01:44:17.120Z,19.12
2024-02-02T01:49:18.690Z,19.13
2024-02-02T01:54:20.213Z,19.13
2024-02-02T01:59:21.700Z,19.16
2024-02-02T02:04:24.115Z,19.13
2024-02-02T02:09:25.830Z,19.11
2024-02-02T02:14:27.349Z,19.05
2024-02-02T02:19:28.884Z,19.10
2024-02-02T02:24:30.397Z,19.06
2024-02-02T02:29:32.005Z,19.07
2024-02-02T02:34:33.703Z,19.03
2024-02-02T02:39:35.323Z,19.02
2024-02-02T02:44:36.774Z,18.99
2024-02-02T02:49:38.353Z,19.03
2024-02-02T02:54:39.859Z,19.02
2024-02-02T02:59:41.246Z,19.04
2024-02-02T03:04:42.687Z,19.04
2024-02-02T03:09:44.316Z,18.97
2024-02-02T03:14:45.733Z,18.98
2024-02-02T03:19:47.209Z,18.97
2024-02-02T03:24:48.737Z,18.96
2024-02-02T03:29:50.264Z,18.96
2024-02-02T03:34:51.700Z,18.93
2024-02-02T03:39:53.153Z,18.91
2024-02-02T03:44:54.633Z,18.88
2024-02-02T03:49:56.153Z,18.89
2024-02-02T03:54:57.571Z,18.88
2024-02-02T03:59:59.040Z,18.86
2024-02-02T04:05:00.475Z,18.85
2024-02-02T04:10:02.089Z,18.84
2024-02-02T04:15:04.902Z,18.82
2024-02-02T04:20:06.979Z,18.82
2024-02-02T04:25:08.516Z,18.82
2024-02-02T04:30:10.585Z,18.77
2024-02-02T04:35:12.027Z,18.78
2024-02-02T04:40:13.504Z,18.74
2024-02-02T04:45:14.908Z,18.73
2024-02-02T04:50:16.710Z,18.72
2024-02-02T09:51:27.880Z,19.69
2024-02-02T10:01:37.429Z,19.98
2024-02-02T10:25:13.869Z,21.33
2024-02-02T10:35:48.146Z,21.65
2024-02-02T10:46:02.891Z,21.79
2024-02-02T10:56:11.638Z,21.91
2024-02-02T11:06:30.097Z,21.70
2024-02-02T11:16:40.914Z,21.51
2024-02-02T11:27:06.209Z,21.35
2024-02-02T11:37:16.319Z,21.18
2024-02-02T11:47:18.845Z,20.79
2024-02-02T11:57:21.967Z,20.80
2024-02-02T12:07:29.728Z,20.61
2024-02-02T12:17:31.688Z,20.57
2024-02-02T12:27:33.261Z,20.61
2024-02-02T12:37:43.944Z,20.59
2024-02-02T12:47:45.618Z,20.47
2024-02-02T12:57:47.157Z,20.60
2024-02-02T13:07:50.335Z,20.83
2024-02-02T13:18:01.322Z,21.08
2024-02-02T13:28:03.412Z,21.30
2024-02-02T13:38:05.005Z,21.31
2024-02-02T13:48:06.889Z,21.14
2024-02-02T13:58:08.382Z,21.13
2024-02-02T14:08:10.330Z,20.95
2024-02-02T14:18:12.766Z,20.91
2024-02-02T14:28:19.122Z,20.93
2024-02-02T14:38:20.647Z,20.85
2024-02-02T14:48:22.373Z,20.69
2024-02-02T14:58:24.908Z,20.58
2024-02-02T15:08:26.354Z,20.37
2024-02-02T15:18:27.846Z,20.28
2024-02-02T15:28:29.316Z,20.14
2024-02-02T15:38:30.751Z,20.17
2024-02-02T15:48:35.757Z,20.01
2024-02-02T15:58:37.372Z,20.22
2024-02-02T16:08:39.172Z,20.61
2024-02-02T16:18:40.748Z,20.68
2024-02-02T16:28:42.287Z,20.83
2024-02-02T16:38:45.790Z,20.44
2024-02-02T16:48:47.478Z,20.34
2024-02-02T16:58:48.956Z,20.23
2024-02-02T17:08:50.716Z,19.95
2024-02-02T17:18:52.210Z,19.89
2024-02-02T17:29:00.140Z,19.83
2024-02-02T17:39:05.376Z,19.73
2024-02-02T17:49:06.928Z,19.74
2024-02-02T17:59:08.538Z,19.68
2024-02-02T18:09:09.974Z,19.57
2024-02-02T18:19:12.041Z,19.62
2024-02-02T18:29:13.632Z,19.57
2024-02-02T18:39:15.543Z,19.49
2024-02-02T18:49:17.361Z,19.48
2024-02-02T18:59:18.816Z,19.51
2024-02-02T19:09:22.790Z,19.41
2024-02-02T19:19:24.344Z,19.32
2024-02-02T19:29:25.928Z,19.37
2024-02-02T19:39:27.469Z,19.43
2024-02-02T19:49:29.059Z,19.59
2024-02-02T19:59:30.670Z,19.72
2024-02-02T20:09:32.116Z,19.87
2024-02-02T20:19:33.626Z,19.91
2024-02-02T20:29:38.373Z,20.11
2024-02-02T20:39:40.185Z,20.17
2024-02-02T20:49:41.633Z,20.21
2024-02-02T20:59:43.131Z,20.30
2024-02-02T21:09:44.604Z,20.27
2024-02-02T21:19:46.212Z,20.22
2024-02-02T21:29:47.818Z,20.18
2024-02-02T21:39:49.348Z,20.11
2024-02-02T21:49:50.897Z,20.00
2024-02-02T21:59:52.464Z,19.94
2024-02-02T22:09:53.985Z,19.76
2024-02-02T22:19:55.574Z,19.65
2024-02-02T22:29:57.124Z,19.46
2024-02-02T22:39:58.728Z,19.38
2024-02-02T22:50:00.676Z,19.37
2024-02-02T23:00:06.091Z,19.25
2024-02-02T23:10:08.676Z,19.10
2024-02-02T23:20:10.559Z,19.02
2024-02-02T23:30:12.487Z,19.04
2024-02-02T23:40:14.007Z,19.09
2024-02-02T23:50:15.477Z,19.12
